createdAt,value
2022-11-30T00:00:50.186Z,5.00
2022-11-30T00:03:09.811Z,4.90
2022-11-30T00:05:29.961Z,4.38
2022-11-30T00:07:49.893Z,4.80
2022-11-30T00:10:10.110Z,3.75
2022-11-30T00:12:29.964Z,5.30
2022-11-30T00:14:49.631Z,5.13
2022-11-30T00:17:09.222Z,4.25
2022-11-30T00:19:28.963Z,4.55
2022-11-30T00:21:48.625Z,5.03
2022-11-30T00:24:08.429Z,6.35
2022-11-30T00:26:28.606Z,6.15
2022-11-30T00:28:48.405Z,5.63
2022-11-30T00:31:12.160Z,6.28
2022-11-30T00:33:33.503Z,6.03
2022-11-30T00:36:01.397Z,6.40
2022-11-30T00:38:21.356Z,5.60
2022-11-30T00:40:41.415Z,6.35
2022-11-30T00:43:01.188Z,5.00
2022-11-30T00:45:20.980Z,5.45
2022-11-30T00:47:41.506Z,4.20
2022-11-30T00:50:02.354Z,4.95
2022-11-30T00:52:22.140Z,5.25
2022-11-30T00:54:41.722Z,5.40
2022-11-30T00:57:01.327Z,4.50
2022-11-30T00:59:21.466Z,4.30
2022-11-30T01:01:41.348Z,4.20
2022-11-30T01:04:01.449Z,4.80
2022-11-30T01:06:20.965Z,5.53
2022-11-30T01:08:40.638Z,8.38
2022-11-30T01:11:32.581Z,5.97
2022-11-30T01:13:54.428Z,5.88
2022-11-30T01:16:18.232Z,4.60
2022-11-30T01:18:38.542Z,5.28
2022-11-30T01:20:58.251Z,4.45
2022-11-30T01:23:17.836Z,4.00
2022-11-30T01:25:38.847Z,4.70
2022-11-30T01:27:58.845Z,4.50
2022-11-30T01:30:20.753Z,5.20
2022-11-30T01:32:40.504Z,5.47
2022-11-30T01:35:00.286Z,5.50
2022-11-30T01:37:19.966Z,5.32
2022-11-30T01:39:40.019Z,5.68
2022-11-30T01:41:59.758Z,5.00
2022-11-30T01:44:25.768Z,5.18
2022-11-30T01:46:53.366Z,5.45
2022-11-30T01:49:17.927Z,5.88
2022-11-30T01:52:09.904Z,5.55
2022-11-30T01:54:35.540Z,5.88
2022-11-30T01:57:32.234Z,5.50
2022-11-30T01:59:56.180Z,6.43
2022-11-30T02:02:23.535Z,6.10
2022-11-30T02:04:43.786Z,4.85
2022-11-30T02:07:06.427Z,5.82
2022-11-30T02:09:28.328Z,6.05
2022-11-30T02:11:49.217Z,7.03
2022-11-30T02:14:23.439Z,8.30
2022-11-30T02:17:15.518Z,6.72
2022-11-30T02:20:02.892Z,6.38
2022-11-30T02:22:50.679Z,6.57
2022-11-30T02:25:23.463Z,7.15
2022-11-30T02:28:01.957Z,7.68
2022-11-30T02:30:23.223Z,7.95
2022-11-30T02:32:47.069Z,7.45
2022-11-30T02:35:08.114Z,7.68
2022-11-30T02:37:29.301Z,7.07
2022-11-30T02:39:49.224Z,7.95
2022-11-30T02:42:13.549Z,7.13
2022-11-30T02:44:33.268Z,6.40
2022-11-30T02:47:08.179Z,6.93
2022-11-30T02:49:57.817Z,6.90
2022-11-30T02:52:19.332Z,6.70
2022-11-30T02:54:39.232Z,6.63
2022-11-30T02:56:58.858Z,7.68
2022-11-30T02:59:19.730Z,5.00
2022-11-30T03:01:40.111Z,7.45
2022-11-30T03:03:59.875Z,6.53
2022-11-30T03:06:19.765Z,6.53
2022-11-30T03:08:39.397Z,6.78
2022-11-30T03:11:03.687Z,6.88
2022-11-30T03:13:23.836Z,6.60
2022-11-30T03:15:43.957Z,6.03
2022-11-30T03:18:04.907Z,6.65
2022-11-30T03:20:25.320Z,6.80
2022-11-30T03:22:45.365Z,6.50
2022-11-30T03:25:05.617Z,8.70
2022-11-30T03:27:25.862Z,8.27
2022-11-30T03:29:45.976Z,7.90
2022-11-30T03:32:06.460Z,8.07
2022-11-30T03:34:27.921Z,7.55
2022-11-30T03:36:48.732Z,8.30
2022-11-30T03:39:08.914Z,8.15
2022-11-30T03:41:29.138Z,9.35
2022-11-30T03:43:48.804Z,8.68
2022-11-30T03:46:08.854Z,8.55
2022-11-30T03:48:29.931Z,7.53
2022-11-30T03:50:49.826Z,6.97
2022-11-30T03:53:10.052Z,6.68
2022-11-30T03:55:30.960Z,7.88
2022-11-30T03:57:51.453Z,6.80
2022-11-30T04:00:13.025Z,7.97
2022-11-30T04:02:33.192Z,7.90
2022-11-30T04:04:53.145Z,6.80
2022-11-30T04:07:13.245Z,7.90
2022-11-30T04:09:32.727Z,6.38
2022-11-30T04:11:52.875Z,6.85
2022-11-30T04:14:12.951Z,7.30
2022-11-30T04:16:33.262Z,7.03
2022-11-30T04:18:56.006Z,5.60
2022-11-30T04:21:16.123Z,5.45
2022-11-30T04:23:38.785Z,7.28
2022-11-30T04:25:59.206Z,6.03
2022-11-30T04:28:19.635Z,4.88
2022-11-30T04:30:39.696Z,5.97
2022-11-30T04:33:00.197Z,4.80
2022-11-30T04:35:20.278Z,6.55
2022-11-30T04:37:40.365Z,5.22
2022-11-30T04:40:00.379Z,5.35
2022-11-30T04:42:20.180Z,5.32
2022-11-30T04:44:40.250Z,4.97
2022-11-30T04:47:00.707Z,4.70
2022-11-30T04:49:20.435Z,4.53
2022-11-30T04:51:40.093Z,5.50
2022-11-30T04:53:59.677Z,5.63
2022-11-30T04:56:19.305Z,4.97
2022-11-30T04:58:39.250Z,5.75
2022-11-30T05:00:59.207Z,5.63
2022-11-30T05:03:18.789Z,4.10
2022-11-30T05:05:38.546Z,5.50
2022-11-30T05:07:59.434Z,4.82
2022-11-30T05:10:19.535Z,4.93
2022-11-30T05:12:39.291Z,4.75
2022-11-30T05:14:59.370Z,5.45
2022-11-30T05:17:19.258Z,4.60
2022-11-30T05:19:38.953Z,4.80
2022-11-30T05:21:58.683Z,4.68
2022-11-30T05:24:18.616Z,4.50
2022-11-30T05:26:38.254Z,3.90
2022-11-30T05:28:57.791Z,4.85
2022-11-30T05:31:17.445Z,4.78
2022-11-30T05:33:37.349Z,5.25
2022-11-30T05:35:57.253Z,4.88
2022-11-30T05:38:17.574Z,4.00
2022-11-30T05:40:37.184Z,5.03
2022-11-30T05:43:01.092Z,4.07
2022-11-30T05:45:20.965Z,4.07
2022-11-30T05:47:40.501Z,3.72
2022-11-30T05:50:00.089Z,3.38
2022-11-30T05:52:19.700Z,3.78
2022-11-30T05:54:39.403Z,4.80
2022-11-30T05:56:59.055Z,4.75
2022-11-30T05:59:18.773Z,4.90
2022-11-30T06:01:38.515Z,5.55
2022-11-30T06:03:58.572Z,5.88
2022-11-30T06:06:18.487Z,6.68
2022-11-30T06:08:38.518Z,6.40
2022-11-30T06:11:00.597Z,6.72
2022-11-30T06:13:23.577Z,7.30
2022-11-30T06:15:47.324Z,7.25
2022-11-30T06:18:07.975Z,6.93
2022-11-30T06:20:27.939Z,7.90
2022-11-30T06:22:47.602Z,6.53
2022-11-30T06:25:07.245Z,6.50
2022-11-30T06:27:31.007Z,6.75
2022-11-30T06:29:50.754Z,6.40
2022-11-30T06:32:10.232Z,6.22
2022-11-30T06:34:31.375Z,7.10
2022-11-30T06:36:50.861Z,7.47
2022-11-30T06:39:11.811Z,6.28
2022-11-30T06:41:31.637Z,6.03
2022-11-30T06:43:51.325Z,10.82
2022-11-30T06:46:11.178Z,9.77
2022-11-30T06:48:31.123Z,7.75
2022-11-30T06:50:51.295Z,8.60
2022-11-30T06:53:10.820Z,6.93
2022-11-30T06:55:32.290Z,8.07
2022-11-30T06:57:52.586Z,8.05
2022-11-30T07:00:13.500Z,7.57
2022-11-30T07:02:34.010Z,7.68
2022-11-30T07:04:53.701Z,8.80
2022-11-30T07:07:13.402Z,7.07
2022-11-30T07:09:36.781Z,8.82
2022-11-30T07:11:56.595Z,7.35
2022-11-30T07:14:16.124Z,8.32
2022-11-30T07:16:35.927Z,8.50
2022-11-30T07:18:56.052Z,7.93
2022-11-30T07:21:15.787Z,25.42
2022-11-30T07:23:56.876Z,8.35
2022-11-30T07:26:17.398Z,8.25
2022-11-30T07:28:50.609Z,8.57
2022-11-30T07:31:31.362Z,8.63
2022-11-30T07:33:51.554Z,7.93
2022-11-30T07:36:12.475Z,7.03
2022-11-30T07:38:32.468Z,7.82
2022-11-30T07:40:52.279Z,14.80
2022-11-30T07:43:11.918Z,17.08
2022-11-30T07:45:31.717Z,12.25
2022-11-30T07:47:51.329Z,14.38
2022-11-30T07:50:11.265Z,11.93
2022-11-30T07:52:31.131Z,10.98
2022-11-30T07:54:51.021Z,10.63
2022-11-30T07:57:11.752Z,12.98
2022-11-30T07:59:31.649Z,12.02
2022-11-30T08:01:51.429Z,11.05
2022-11-30T08:04:13.204Z,11.93
2022-11-30T08:06:33.011Z,10.70
2022-11-30T08:08:55.770Z,13.52
2022-11-30T08:11:19.081Z,14.18
2022-11-30T08:13:39.666Z,11.07
2022-11-30T08:16:05.624Z,15.05
2022-11-30T08:18:25.449Z,21.05
2022-11-30T08:20:49.847Z,17.00
2022-11-30T08:23:10.197Z,10.30
2022-11-30T08:25:30.812Z,8.63
2022-11-30T08:27:50.723Z,9.30
2022-11-30T08:30:10.543Z,10.93
2022-11-30T08:32:30.891Z,12.10
2022-11-30T08:34:50.815Z,11.93
2022-11-30T08:37:10.791Z,12.13
2022-11-30T08:39:33.428Z,10.60
2022-11-30T08:41:53.274Z,9.70
2022-11-30T08:44:13.409Z,10.70
2022-11-30T08:49:22.896Z,8.55
2022-11-30T08:52:15.394Z,8.20
2022-11-30T08:54:22.783Z,7.90
2022-11-30T08:56:42.388Z,7.68
2022-11-30T08:59:01.861Z,9.45
2022-11-30T09:01:28.447Z,6.80
2022-11-30T09:03:53.928Z,7.25
2022-11-30T09:06:19.512Z,6.38
2022-11-30T09:08:41.231Z,7.30
2022-11-30T09:11:36.921Z,9.00
2022-11-30T09:13:59.269Z,12.00
2022-11-30T09:16:20.251Z,7.68
2022-11-30T09:18:41.278Z,7.32
2022-11-30T09:21:04.237Z,7.60
2022-11-30T09:23:24.044Z,7.85
2022-11-30T09:25:43.977Z,10.73
2022-11-30T09:28:05.812Z,8.98
2022-11-30T09:30:29.633Z,6.65
2022-11-30T09:32:49.697Z,6.53
2022-11-30T09:35:12.794Z,7.25
2022-11-30T09:37:32.991Z,7.03
2022-11-30T09:39:52.873Z,6.75
2022-11-30T09:42:15.092Z,7.20
2022-11-30T09:44:44.623Z,6.33
2022-11-30T09:47:17.844Z,7.72
2022-11-30T09:49:43.244Z,6.95
2022-11-30T09:52:05.801Z,7.57
2022-11-30T09:54:35.929Z,6.40
2022-11-30T09:56:55.576Z,12.35
2022-11-30T09:59:28.941Z,12.10
2022-11-30T10:01:55.324Z,15.00
2022-11-30T10:04:23.285Z,7.93
2022-11-30T10:07:05.779Z,5.53
2022-11-30T10:09:37.854Z,7.70
2022-11-30T10:12:21.064Z,10.00
2022-11-30T10:15:15.251Z,6.25
2022-11-30T10:17:56.377Z,6.28
2022-11-30T10:20:39.171Z,7.25
2022-11-30T10:23:18.037Z,8.60
2022-11-30T10:25:55.733Z,7.05
2022-11-30T10:28:46.926Z,5.88
2022-11-30T10:31:13.520Z,8.85
2022-11-30T10:33:51.241Z,5.75
2022-11-30T10:36:25.726Z,7.15
2022-11-30T10:38:53.649Z,13.70
2022-11-30T10:41:26.015Z,6.63
2022-11-30T10:44:04.482Z,6.00
2022-11-30T10:46:29.279Z,6.57
2022-11-30T10:48:58.840Z,6.75
2022-11-30T10:51:19.584Z,5.82
2022-11-30T10:53:39.619Z,7.75
2022-11-30T10:56:05.629Z,7.55
2022-11-30T10:58:42.868Z,8.20
2022-11-30T11:01:09.534Z,7.28
2022-11-30T11:03:30.098Z,8.00
2022-11-30T11:06:02.701Z,7.85
2022-11-30T11:08:26.629Z,7.35
2022-11-30T11:10:50.761Z,6.75
2022-11-30T11:13:36.604Z,6.38
2022-11-30T11:15:59.230Z,8.55
2022-11-30T11:18:25.489Z,7.43
2022-11-30T11:20:46.710Z,6.88
2022-11-30T11:23:19.192Z,8.82
2022-11-30T11:25:42.482Z,9.15
2022-11-30T11:28:18.218Z,9.50
2022-11-30T11:30:38.412Z,8.82
2022-11-30T11:33:13.385Z,8.73
2022-11-30T11:35:39.383Z,6.82
2022-11-30T11:37:59.383Z,7.63
2022-11-30T11:40:21.732Z,9.07
2022-11-30T11:42:46.920Z,7.43
2022-11-30T11:45:34.865Z,8.95
2022-11-30T11:48:09.264Z,8.32
2022-11-30T11:51:05.676Z,8.88
2022-11-30T11:53:23.604Z,9.48
2022-11-30T11:55:44.772Z,9.50
2022-11-30T11:58:05.753Z,8.65
2022-11-30T12:00:25.807Z,8.40
2022-11-30T12:03:22.708Z,8.45
2022-11-30T12:05:51.009Z,10.45
2022-11-30T12:08:27.589Z,10.25
2022-11-30T12:11:05.519Z,11.20
2022-11-30T12:13:33.813Z,9.05
2022-11-30T12:16:14.974Z,11.93
2022-11-30T12:18:49.486Z,9.68
2022-11-30T12:21:14.911Z,10.50
2022-11-30T12:23:35.157Z,9.20
2022-11-30T12:26:40.683Z,12.15
2022-11-30T12:29:03.449Z,9.57
2022-11-30T12:31:41.266Z,8.30
2022-11-30T12:34:10.404Z,7.45
2022-11-30T12:36:38.935Z,8.50
2022-11-30T12:39:20.145Z,8.77
2022-11-30T12:41:46.044Z,6.10
2022-11-30T12:44:38.522Z,6.22
2022-11-30T12:47:19.687Z,6.38
2022-11-30T12:50:09.936Z,6.20
2022-11-30T12:52:47.649Z,5.55
2022-11-30T12:55:42.373Z,6.95
2022-11-30T12:58:17.155Z,7.63
2022-11-30T13:01:08.913Z,6.40
2022-11-30T13:03:52.840Z,7.03
2022-11-30T13:09:04.620Z,8.00
2022-11-30T13:11:34.741Z,9.10
2022-11-30T13:13:57.984Z,8.60
2022-11-30T13:18:39.341Z,7.05
2022-11-30T13:21:36.836Z,8.15
2022-11-30T13:24:25.732Z,7.13
2022-11-30T13:26:49.604Z,8.85
2022-11-30T13:29:36.765Z,8.68
2022-11-30T13:32:04.797Z,39.60
2022-11-30T13:34:29.278Z,6.45
2022-11-30T13:36:49.440Z,6.43
2022-11-30T13:39:13.696Z,7.10
2022-11-30T13:41:33.476Z,5.63
2022-11-30T13:43:53.290Z,7.05
2022-11-30T13:46:21.408Z,5.53
2022-11-30T13:48:43.507Z,6.95
2022-11-30T13:51:04.189Z,5.72
2022-11-30T13:53:25.698Z,8.45
2022-11-30T13:55:57.879Z,7.00
2022-11-30T13:58:19.756Z,6.45
2022-11-30T14:00:39.945Z,8.13
2022-11-30T14:03:25.288Z,8.20
2022-11-30T14:05:46.081Z,6.55
2022-11-30T14:08:05.917Z,7.05
2022-11-30T14:10:29.751Z,5.82
2022-11-30T14:12:58.050Z,6.90
2022-11-30T14:15:42.966Z,5.18
2022-11-30T14:18:08.686Z,5.85
2022-11-30T14:20:37.980Z,6.22
2022-11-30T14:23:13.302Z,6.53
2022-11-30T14:25:34.674Z,7.53
2022-11-30T14:27:56.715Z,7.25
2022-11-30T14:30:20.218Z,6.82
2022-11-30T14:32:43.741Z,9.05
2022-11-30T14:35:13.727Z,8.10
2022-11-30T14:37:41.146Z,8.65
2022-11-30T14:40:04.004Z,7.55
2022-11-30T14:42:26.772Z,11.98
2022-11-30T14:44:47.314Z,9.23
2022-11-30T14:47:21.639Z,8.80
2022-11-30T14:49:51.681Z,8.68
2022-11-30T14:52:14.904Z,9.30
2022-11-30T14:55:12.901Z,8.82
2022-11-30T14:58:02.697Z,8.30
2022-11-30T15:00:26.930Z,12.20
2022-11-30T15:02:48.198Z,11.57
2022-11-30T15:05:14.076Z,12.82
2022-11-30T15:07:37.199Z,17.08
2022-11-30T15:12:23.683Z,10.98
2022-11-30T15:15:01.592Z,11.43
2022-11-30T15:17:21.733Z,14.75
2022-11-30T15:19:47.852Z,14.13
2022-11-30T15:22:21.293Z,15.68
2022-11-30T15:24:43.858Z,16.27
2022-11-30T15:27:11.734Z,15.25
2022-11-30T15:29:36.578Z,17.50
2022-11-30T15:31:58.681Z,8.48
2022-11-30T15:34:25.760Z,16.85
2022-11-30T15:36:46.308Z,19.25
2022-11-30T15:39:14.134Z,23.08
2022-11-30T15:41:35.293Z,23.15
2022-11-30T15:43:56.632Z,24.17
2022-11-30T15:46:41.244Z,25.63
2022-11-30T15:49:12.069Z,34.03
2022-11-30T15:51:45.445Z,20.02
2022-11-30T15:54:05.668Z,19.45
2022-11-30T15:56:28.649Z,16.63
2022-11-30T15:59:00.503Z,16.88
2022-11-30T16:01:24.344Z,17.55
2022-11-30T16:04:03.761Z,16.40
2022-11-30T16:06:47.328Z,18.08
2022-11-30T16:09:19.271Z,13.25
2022-11-30T16:11:39.366Z,13.45
2022-11-30T16:13:59.028Z,24.52
2022-11-30T16:16:27.565Z,10.90
2022-11-30T16:18:47.613Z,12.90
2022-11-30T16:21:12.012Z,27.75
2022-11-30T16:23:34.030Z,18.42
2022-11-30T16:25:53.883Z,17.70
2022-11-30T16:28:15.508Z,14.52
2022-11-30T16:30:35.809Z,14.25
2022-11-30T16:32:55.305Z,14.48
2022-11-30T16:35:22.897Z,14.45
2022-11-30T16:37:42.542Z,12.07
2022-11-30T16:40:02.324Z,10.80
2022-11-30T16:42:22.356Z,10.68
2022-11-30T16:44:41.959Z,14.45
2022-11-30T16:47:01.564Z,17.60
2022-11-30T16:49:21.427Z,15.15
2022-11-30T16:51:41.277Z,29.55
2022-11-30T16:54:00.894Z,33.45
2022-11-30T16:56:20.909Z,38.55
2022-11-30T16:58:41.185Z,29.80
2022-11-30T17:01:01.175Z,23.80
2022-11-30T17:03:25.938Z,24.90
2022-11-30T17:05:46.226Z,58.67
2022-11-30T17:08:06.400Z,54.33
2022-11-30T17:10:26.565Z,24.10
2022-11-30T17:12:46.640Z,23.08
2022-11-30T17:15:10.240Z,39.28
2022-11-30T17:17:30.356Z,39.85
2022-11-30T17:19:51.351Z,49.97
2022-11-30T17:22:10.886Z,46.58
2022-11-30T17:24:30.275Z,39.97
2022-11-30T17:26:49.957Z,34.45
2022-11-30T17:29:09.499Z,26.92
2022-11-30T17:31:29.279Z,29.50
2022-11-30T17:33:48.979Z,36.53
2022-11-30T17:36:12.720Z,25.67
2022-11-30T17:38:34.314Z,19.90
2022-11-30T17:40:54.494Z,32.90
2022-11-30T17:43:14.347Z,26.83
2022-11-30T17:45:39.579Z,30.85
2022-11-30T17:47:59.538Z,32.95
2022-11-30T17:50:19.457Z,37.38
2022-11-30T17:52:39.115Z,33.22
2022-11-30T17:54:58.695Z,28.73
2022-11-30T17:57:18.295Z,27.13
2022-11-30T17:59:37.892Z,27.70
2022-11-30T18:01:58.120Z,33.70
2022-11-30T18:04:17.886Z,42.72
2022-11-30T18:06:37.888Z,38.97
2022-11-30T18:08:57.848Z,35.13
2022-11-30T18:11:23.786Z,29.33
2022-11-30T18:13:43.634Z,29.45
2022-11-30T18:16:12.659Z,24.38
2022-11-30T18:18:32.426Z,34.90
2022-11-30T18:20:52.137Z,35.15
2022-11-30T18:23:11.864Z,39.90
2022-11-30T18:25:34.192Z,38.75
2022-11-30T18:27:53.840Z,35.13
2022-11-30T18:30:13.837Z,42.65
2022-11-30T18:32:33.638Z,50.88
2022-11-30T18:34:53.675Z,49.28
2022-11-30T18:37:13.786Z,48.35
2022-11-30T18:39:33.578Z,39.15
2022-11-30T18:41:53.268Z,38.28
2022-11-30T18:44:13.337Z,34.78
2022-11-30T18:46:33.147Z,22.95
2022-11-30T18:48:53.912Z,25.38
2022-11-30T18:51:23.195Z,29.90
2022-11-30T18:53:43.292Z,28.42
2022-11-30T18:56:18.132Z,28.70
2022-11-30T18:58:38.205Z,28.65
2022-11-30T19:01:07.269Z,26.90
2022-11-30T19:03:26.886Z,27.02
2022-11-30T19:05:46.549Z,36.50
2022-11-30T19:08:13.152Z,30.65
2022-11-30T19:10:37.627Z,35.75
2022-11-30T19:12:57.333Z,32.13
2022-11-30T19:15:17.160Z,42.95
2022-11-30T19:17:36.860Z,38.53
2022-11-30T19:19:56.686Z,28.38
2022-11-30T19:22:16.885Z,29.20
2022-11-30T19:24:36.676Z,39.20
2022-11-30T19:26:56.197Z,34.60
2022-11-30T19:29:15.807Z,37.03
2022-11-30T19:31:35.449Z,33.67
2022-11-30T19:33:55.801Z,30.48
2022-11-30T19:36:18.298Z,34.05
2022-11-30T19:38:37.891Z,33.42
2022-11-30T19:40:57.633Z,43.00
2022-11-30T19:43:17.065Z,31.70
2022-11-30T19:45:36.776Z,27.98
2022-11-30T19:47:56.252Z,24.73
2022-11-30T19:50:16.081Z,26.80
2022-11-30T19:52:35.953Z,29.42
2022-11-30T19:54:55.632Z,27.58
2022-11-30T19:57:15.336Z,26.77
2022-11-30T19:59:34.841Z,29.33
2022-11-30T20:01:54.707Z,27.02
2022-11-30T20:04:14.577Z,29.80
2022-11-30T20:06:36.399Z,38.58
2022-11-30T20:08:56.651Z,40.83
2022-11-30T20:11:16.791Z,37.25
2022-11-30T20:13:37.696Z,35.38
2022-11-30T20:15:57.602Z,36.17
2022-11-30T20:18:17.206Z,41.00
2022-11-30T20:20:36.945Z,41.00
2022-11-30T20:22:57.024Z,39.10
2022-11-30T20:25:17.208Z,38.13
2022-11-30T20:27:36.819Z,37.65
2022-11-30T20:29:56.441Z,37.35
2022-11-30T20:32:16.447Z,40.67
2022-11-30T20:34:40.961Z,38.65
2022-11-30T20:37:03.362Z,42.60
2022-11-30T20:39:23.058Z,37.35
2022-11-30T20:41:42.865Z,39.70
2022-11-30T20:44:02.864Z,38.78
2022-11-30T20:46:26.600Z,31.48
2022-11-30T20:48:47.467Z,33.03
2022-11-30T20:51:33.072Z,39.88
2022-11-30T20:53:53.502Z,44.50
2022-11-30T20:56:13.728Z,56.95
2022-11-30T20:58:33.925Z,65.45
2022-11-30T21:00:53.817Z,45.70
2022-11-30T21:03:13.446Z,46.20
2022-11-30T21:05:34.016Z,42.72
2022-11-30T21:07:53.871Z,36.08
2022-11-30T21:10:14.588Z,30.23
2022-11-30T21:12:34.430Z,40.75
2022-11-30T21:14:54.032Z,46.63
2022-11-30T21:17:13.745Z,44.97
2022-11-30T21:19:33.942Z,40.55
2022-11-30T21:21:55.284Z,33.20
2022-11-30T21:24:15.088Z,30.25
2022-11-30T21:26:39.803Z,31.20
2022-11-30T21:29:06.230Z,26.17
2022-11-30T21:31:26.696Z,35.55
2022-11-30T21:33:52.828Z,45.35
2022-11-30T21:36:15.457Z,40.25
2022-11-30T21:38:35.189Z,42.17
2022-11-30T21:40:59.317Z,40.30
2022-11-30T21:43:18.921Z,41.17
2022-11-30T21:45:38.651Z,46.78
2022-11-30T21:47:58.378Z,46.90
2022-11-30T21:50:19.893Z,49.65
2022-11-30T21:52:41.800Z,50.70
2022-11-30T21:55:01.383Z,41.88
2022-11-30T21:57:21.121Z,43.58
2022-11-30T21:59:41.096Z,39.53
2022-11-30T22:02:00.698Z,43.78
2022-11-30T22:04:20.448Z,43.22
2022-11-30T22:06:41.542Z,43.67
2022-11-30T22:09:07.073Z,43.85
2022-11-30T22:11:26.722Z,40.50
2022-11-30T22:13:50.905Z,42.03
2022-11-30T22:16:13.665Z,40.38
2022-11-30T22:18:33.846Z,36.70
2022-11-30T22:21:01.423Z,40.25
2022-11-30T22:23:21.313Z,38.53
2022-11-30T22:25:41.699Z,37.42
2022-11-30T22:28:01.347Z,40.20
2022-11-30T22:30:21.121Z,36.53
2022-11-30T22:32:43.479Z,35.90
2022-11-30T22:35:03.817Z,38.55
2022-11-30T22:37:23.372Z,38.05
2022-11-30T22:39:42.988Z,38.20
2022-11-30T22:42:02.652Z,36.97
2022-11-30T22:44:23.119Z,36.67
2022-11-30T22:46:43.935Z,35.35
2022-11-30T22:49:08.677Z,39.58
2022-11-30T22:51:30.374Z,39.00
2022-11-30T22:53:51.255Z,51.45
2022-11-30T22:56:13.742Z,52.67
2022-11-30T22:58:33.887Z,40.83
2022-11-30T23:00:53.737Z,48.13
2022-11-30T23:03:13.672Z,43.45
2022-11-30T23:05:34.495Z,39.17
2022-11-30T23:07:54.619Z,40.70
2022-11-30T23:10:14.611Z,39.85
2022-11-30T23:12:57.897Z,39.38
2022-11-30T23:15:14.091Z,38.15
2022-11-30T23:17:33.769Z,38.28
2022-11-30T23:19:53.384Z,37.08
2022-11-30T23:22:12.961Z,38.65
2022-11-30T23:24:32.709Z,37.53
2022-11-30T23:26:52.266Z,36.97
2022-11-30T23:29:14.307Z,41.13
2022-11-30T23:31:36.651Z,41.83
2022-11-30T23:33:56.511Z,43.03
2022-11-30T23:36:17.899Z,42.50
2022-11-30T23:38:38.019Z,46.80
2022-11-30T23:41:07.974Z,48.22
2022-11-30T23:43:27.886Z,43.30
2022-11-30T23:45:47.451Z,44.85
2022-11-30T23:48:07.052Z,42.22
2022-11-30T23:50:26.554Z,44.95
2022-11-30T23:52:46.561Z,43.55
2022-11-30T23:55:06.956Z,47.00
2022-11-30T23:57:26.554Z,44.35
2022-11-30T23:59:46.332Z,43.38
